Time;durP1;ratioP1;P1;durP2;ratioP2;P2;SDS_P1;SDS_P2;PMS_P1;PMS_P2;Temp;Humidity;BMP_temperature;BMP_pressure;BME280_temperature;BME280_humidity;BME280_pressure;Samples;Min_cycle;Max_cycle;Signal;HPM_P1;HPM_P2
2021/01/02 00:00:20;;;;;;;48.63;25.45;;;;;;;;;;5074840;28;20043;-74
2021/01/02 00:02:46;;;;;;;46.00;25.02;;;;;;;;;;5072969;28;20025;-74
2021/01/02 00:05:13;;;;;;;51.17;27.25;;;;;;;;;;5074702;28;20467;-74
2021/01/02 00:07:42;;;;;;;48.15;25.73;;;;;;;;;;5074528;28;20027;-73
2021/01/02 00:10:10;;;;;;;44.67;24.67;;;;;;;;;;5073275;28;20368;-74
2021/01/02 00:12:48;;;;;;;48.92;25.60;;;;;;;;;;5074741;28;20134;-73
2021/01/02 00:15:18;;;;;;;51.47;27.05;;;;;;;;;;5059750;28;20086;-74
2021/01/02 00:18:04;;;;;;;49.80;25.08;;;;;;;;;;5054794;28;20021;-74
2021/01/02 00:20:34;;;;;;;49.88;25.67;;;;;;;;;;5053489;28;20021;-73
2021/01/02 00:23:01;;;;;;;53.00;24.73;;;;;;;;;;5053252;28;20025;-73
2021/01/02 00:25:32;;;;;;;57.45;27.02;;;;;;;;;;5054752;28;20075;-73
2021/01/02 00:28:17;;;;;;;42.47;23.13;;;;;;;;;;5054490;28;20029;-73
2021/01/02 00:30:52;;;;;;;48.78;26.73;;;;;;;;;;5053049;28;20475;-74
2021/01/02 00:33:19;;;;;;;44.65;24.73;;;;;;;;;;5054416;28;20481;-74
2021/01/02 00:35:48;;;;;;;53.38;26.58;;;;;;;;;;5053426;28;20040;-74
2021/01/02 00:38:15;;;;;;;43.40;25.80;;;;;;;;;;5054351;28;20029;-74
2021/01/02 00:40:41;;;;;;;47.30;25.77;;;;;;;;;;5054251;28;20016;-74
2021/01/02 00:43:07;;;;;;;52.88;27.52;;;;;;;;;;5054450;28;20025;-74
2021/01/02 00:45:33;;;;;;;50.63;26.48;;;;;;;;;;5053207;28;20029;-73
2021/01/02 00:48:02;;;;;;;51.33;27.67;;;;;;;;;;5053838;28;20029;-74
2021/01/02 00:50:28;;;;;;;54.33;28.30;;;;;;;;;;5054241;28;20021;-73
2021/01/02 00:52:59;;;;;;;53.05;28.50;;;;;;;;;;5052489;28;20013;-74
2021/01/02 00:55:25;;;;;;;55.38;29.33;;;;;;;;;;5052890;28;20021;-74
2021/01/02 00:58:02;;;;;;;55.13;27.40;;;;;;;;;;5053819;28;20083;-73
2021/01/02 01:00:29;;;;;;;57.85;29.35;;;;;;;;;;5054446;28;20032;-74
2021/01/02 01:03:02;;;;;;;53.58;28.73;;;;;;;;;;5054084;28;20020;-74
2021/01/02 01:05:38;;;;;;;51.90;26.85;;;;;;;;;;5053997;28;20017;-74
2021/01/02 01:08:04;;;;;;;51.88;27.42;;;;;;;;;;5052418;28;20055;-74
2021/01/02 01:10:32;;;;;;;50.63;27.77;;;;;;;;;;5052511;28;20025;-74
2021/01/02 01:13:06;;;;;;;56.40;30.30;;;;;;;;;;5052338;28;20458;-74
2021/01/02 01:15:32;;;;;;;51.58;27.40;;;;;;;;;;5052517;28;20397;-74
2021/01/02 01:18:11;;;;;;;54.75;28.60;;;;;;;;;;5053477;28;20488;-74
2021/01/02 01:20:43;;;;;;;52.20;28.35;;;;;;;;;;5052339;28;20366;-74
2021/01/02 01:23:27;;;;;;;51.45;28.10;;;;;;;;;;5052305;28;20438;-73
2021/01/02 01:26:12;;;;;;;51.60;28.55;;;;;;;;;;5053358;28;20016;-73
2021/01/02 01:28:39;;;;;;;51.33;29.70;;;;;;;;;;5053543;28;20029;-73
2021/01/02 01:31:05;;;;;;;55.03;29.67;;;;;;;;;;5052981;28;20108;-73
2021/01/02 01:33:31;;;;;;;54.55;28.50;;;;;;;;;;5053685;28;20024;-73
2021/01/02 01:36:02;;;;;;;50.47;30.20;;;;;;;;;;5052815;28;20016;-72
2021/01/02 01:38:29;;;;;;;52.70;29.67;;;;;;;;;;5053367;28;20025;-72
2021/01/02 01:41:05;;;;;;;49.72;28.50;;;;;;;;;;5051380;28;20067;-72
2021/01/02 01:43:54;;;;;;;58.53;31.13;;;;;;;;;;5053608;28;20056;-73
2021/01/02 01:46:25;;;;;;;51.22;28.90;;;;;;;;;;5051586;28;20033;-75
2021/01/02 01:49:05;;;;;;;59.70;30.08;;;;;;;;;;5051728;28;20075;-74
2021/01/02 01:51:50;;;;;;;54.28;29.58;;;;;;;;;;5051885;28;20052;-75
2021/01/02 01:54:34;;;;;;;54.90;29.45;;;;;;;;;;5053092;28;20024;-73
2021/01/02 01:57:03;;;;;;;54.00;30.35;;;;;;;;;;5052475;28;20033;-73
2021/01/02 01:59:44;;;;;;;52.97;28.15;;;;;;;;;;5053076;28;20035;-73
2021/01/02 02:02:17;;;;;;;52.22;29.08;;;;;;;;;;5051820;28;20230;-74
2021/01/02 02:05:09;;;;;;;52.67;30.73;;;;;;;;;;5052888;28;20032;-74
2021/01/02 02:07:42;;;;;;;49.95;29.02;;;;;;;;;;5052481;28;20044;-74
2021/01/02 02:10:09;;;;;;;52.67;30.27;;;;;;;;;;5051303;28;20017;-74
2021/01/02 02:12:35;;;;;;;48.88;29.23;;;;;;;;;;5052782;28;20017;-74
2021/01/02 02:15:01;;;;;;;54.47;27.73;;;;;;;;;;5051186;28;20368;-74
2021/01/02 02:17:54;;;;;;;49.70;27.98;;;;;;;;;;5051382;28;20028;-74
2021/01/02 02:20:25;;;;;;;53.38;28.52;;;;;;;;;;5049836;28;20540;-75
2021/01/02 02:23:01;;;;;;;53.25;27.70;;;;;;;;;;5051060;28;20049;-73
2021/01/02 02:25:35;;;;;;;54.90;30.08;;;;;;;;;;5051127;28;20384;-74
2021/01/02 02:28:02;;;;;;;48.63;29.80;;;;;;;;;;5052287;28;20017;-75
2021/01/02 02:30:34;;;;;;;53.70;31.17;;;;;;;;;;5051211;28;20021;-74
2021/01/02 02:33:08;;;;;;;53.55;29.70;;;;;;;;;;5052328;28;20041;-74
2021/01/02 02:35:35;;;;;;;49.78;29.40;;;;;;;;;;5051145;28;20028;-74
2021/01/02 02:38:01;;;;;;;52.35;30.15;;;;;;;;;;5052067;28;20021;-75
2021/01/02 02:40:27;;;;;;;49.72;28.92;;;;;;;;;;5052152;28;20416;-75
2021/01/02 02:42:55;;;;;;;49.95;29.55;;;;;;;;;;5050787;28;20017;-75
2021/01/02 02:45:21;;;;;;;47.00;31.67;;;;;;;;;;5052410;28;20040;-75
2021/01/02 02:47:49;;;;;;;52.38;28.63;;;;;;;;;;5052442;28;20029;-72
2021/01/02 02:50:18;;;;;;;55.47;30.60;;;;;;;;;;5051955;28;20366;-73
2021/01/02 02:52:46;;;;;;;45.45;28.20;;;;;;;;;;5052230;28;20485;-74
2021/01/02 02:55:12;;;;;;;53.17;29.77;;;;;;;;;;5052215;28;20021;-73
2021/01/02 02:57:46;;;;;;;48.08;30.80;;;;;;;;;;5051566;28;20150;-74
2021/01/02 03:00:12;;;;;;;55.38;31.85;;;;;;;;;;5056072;28;20075;-74
2021/01/02 03:02:39;;;;;;;49.05;28.13;;;;;;;;;;5056280;28;20013;-74
2021/01/02 03:05:09;;;;;;;49.05;28.15;;;;;;;;;;5055742;28;20021;-74
2021/01/02 03:07:40;;;;;;;47.80;28.08;;;;;;;;;;5054966;28;20021;-74
2021/01/02 03:10:06;;;;;;;49.20;28.98;;;;;;;;;;5054634;28;20017;-74
2021/01/02 03:12:39;;;;;;;48.65;28.33;;;;;;;;;;5067281;28;20472;-74
2021/01/02 03:15:05;;;;;;;53.83;28.80;;;;;;;;;;5068239;28;20024;-73
2021/01/02 03:17:31;;;;;;;53.78;30.50;;;;;;;;;;5075715;28;20033;-74
2021/01/02 03:19:57;;;;;;;45.45;27.77;;;;;;;;;;5073855;28;20052;-74
2021/01/02 03:22:23;;;;;;;50.13;29.52;;;;;;;;;;5074144;28;20044;-74
2021/01/02 03:24:49;;;;;;;45.15;25.35;;;;;;;;;;5075261;28;20365;-73
2021/01/02 03:27:15;;;;;;;50.30;30.05;;;;;;;;;;5075617;28;20028;-73
2021/01/02 03:29:41;;;;;;;52.15;30.63;;;;;;;;;;5075826;28;20016;-73
2021/01/02 03:32:07;;;;;;;44.60;27.15;;;;;;;;;;5075240;28;20052;-74
2021/01/02 03:34:37;;;;;;;51.53;30.33;;;;;;;;;;5074378;28;20052;-75
2021/01/02 03:37:03;;;;;;;48.35;29.35;;;;;;;;;;5074050;28;20021;-75
2021/01/02 03:39:29;;;;;;;50.60;29.50;;;;;;;;;;5074343;28;20027;-75
2021/01/02 03:41:55;;;;;;;51.63;30.48;;;;;;;;;;5075655;28;20025;-75
2021/01/02 03:44:21;;;;;;;54.65;30.77;;;;;;;;;;5074224;28;20050;-74
2021/01/02 03:46:47;;;;;;;48.67;30.60;;;;;;;;;;5075262;28;20415;-74
2021/01/02 03:49:13;;;;;;;51.08;30.20;;;;;;;;;;5073866;28;20021;-74
2021/01/02 03:51:39;;;;;;;53.75;31.33;;;;;;;;;;5074120;28;20012;-74
2021/01/02 03:54:05;;;;;;;47.70;29.33;;;;;;;;;;5073822;28;20467;-74
2021/01/02 03:56:31;;;;;;;50.80;31.65;;;;;;;;;;5075279;28;20100;-74
2021/01/02 03:58:57;;;;;;;50.55;28.08;;;;;;;;;;5074993;28;20025;-73
2021/01/02 04:01:23;;;;;;;49.42;29.67;;;;;;;;;;5075207;28;20027;-74
2021/01/02 04:03:49;;;;;;;53.20;30.23;;;;;;;;;;5075201;28;20024;-74
2021/01/02 04:06:23;;;;;;;54.97;30.27;;;;;;;;;;5075170;28;20012;-74
2021/01/02 04:08:49;;;;;;;50.83;28.98;;;;;;;;;;5073378;28;20111;-74
2021/01/02 04:11:15;;;;;;;46.90;29.75;;;;;;;;;;5073535;28;20048;-74
2021/01/02 04:13:41;;;;;;;50.78;29.92;;;;;;;;;;5070895;28;20044;-74
2021/01/02 04:16:07;;;;;;;52.45;29.98;;;;;;;;;;5053271;28;20029;-73
2021/01/02 04:18:34;;;;;;;48.35;28.55;;;;;;;;;;5054946;28;20024;-73
2021/01/02 04:21:00;;;;;;;46.38;29.17;;;;;;;;;;5054642;28;20048;-73
2021/01/02 04:23:26;;;;;;;45.35;27.48;;;;;;;;;;5054817;28;20020;-73
2021/01/02 04:25:52;;;;;;;51.67;29.80;;;;;;;;;;5053047;28;20017;-73
2021/01/02 04:28:18;;;;;;;51.85;30.50;;;;;;;;;;5053380;28;20111;-72
2021/01/02 04:30:44;;;;;;;53.15;29.73;;;;;;;;;;5054640;28;20028;-72
2021/01/02 04:33:10;;;;;;;53.72;30.85;;;;;;;;;;5052960;28;20049;-72
2021/01/02 04:35:36;;;;;;;52.10;31.55;;;;;;;;;;5053267;28;20021;-72
2021/01/02 04:38:03;;;;;;;53.97;31.60;;;;;;;;;;5053908;28;20484;-73
2021/01/02 04:40:29;;;;;;;49.55;30.83;;;;;;;;;;5054535;28;20025;-73
2021/01/02 04:42:55;;;;;;;57.30;33.35;;;;;;;;;;5054213;28;20044;-73
2021/01/02 04:45:21;;;;;;;55.63;34.13;;;;;;;;;;5054383;28;20453;-73
2021/01/02 04:47:49;;;;;;;50.10;31.17;;;;;;;;;;5053105;28;20457;-74
2021/01/02 04:50:16;;;;;;;53.00;32.88;;;;;;;;;;5054154;28;20020;-73
2021/01/02 04:52:42;;;;;;;52.60;32.13;;;;;;;;;;5052896;28;20017;-74
2021/01/02 04:55:09;;;;;;;56.08;34.25;;;;;;;;;;5052729;28;20017;-74
2021/01/02 04:57:36;;;;;;;49.78;31.38;;;;;;;;;;5054085;28;20029;-73
2021/01/02 05:00:05;;;;;;;57.67;36.13;;;;;;;;;;5052329;28;20025;-73
2021/01/02 05:02:32;;;;;;;60.20;36.20;;;;;;;;;;5054077;28;20056;-74
2021/01/02 05:04:59;;;;;;;62.80;36.58;;;;;;;;;;5053797;28;20047;-74
2021/01/02 05:07:29;;;;;;;64.82;36.25;;;;;;;;;;5053958;28;20377;-74
2021/01/02 05:09:55;;;;;;;58.15;35.95;;;;;;;;;;5052468;28;20074;-74
2021/01/02 05:12:24;;;;;;;68.78;39.05;;;;;;;;;;5053843;28;20021;-74
2021/01/02 05:15:08;;;;;;;63.38;38.13;;;;;;;;;;5052480;28;20039;-74
2021/01/02 05:17:34;;;;;;;63.35;37.42;;;;;;;;;;5052471;28;20035;-73
2021/01/02 05:20:07;;;;;;;61.28;38.38;;;;;;;;;;5053060;28;20021;-74
2021/01/02 05:22:34;;;;;;;64.35;38.33;;;;;;;;;;5052242;28;20021;-74
2021/01/02 05:25:09;;;;;;;61.55;37.55;;;;;;;;;;5053400;28;20077;-73
2021/01/02 05:27:36;;;;;;;61.90;37.78;;;;;;;;;;5053582;28;20427;-73
2021/01/02 05:30:21;;;;;;;63.88;38.22;;;;;;;;;;5053355;28;20028;-74
2021/01/02 05:33:16;;;;;;;60.85;35.08;;;;;;;;;;5053581;28;20124;-75
2021/01/02 05:35:46;;;;;;;65.03;38.53;;;;;;;;;;5047627;28;20025;-75
2021/01/02 05:38:13;;;;;;;62.80;36.63;;;;;;;;;;5051684;28;20029;-74
2021/01/02 05:40:43;;;;;;;61.88;37.33;;;;;;;;;;5053348;28;20060;-74
2021/01/02 05:43:10;;;;;;;62.65;37.92;;;;;;;;;;5051808;28;20097;-74
2021/01/02 05:45:36;;;;;;;60.05;36.20;;;;;;;;;;5052009;28;20017;-75
2021/01/02 05:48:13;;;;;;;63.53;38.25;;;;;;;;;;5051731;28;20013;-74
2021/01/02 05:50:42;;;;;;;64.00;39.55;;;;;;;;;;5053160;28;20043;-73
2021/01/02 05:53:18;;;;;;;66.57;39.28;;;;;;;;;;5052895;28;20021;-73
2021/01/02 05:55:45;;;;;;;70.07;39.70;;;;;;;;;;5053069;28;20457;-74
2021/01/02 05:58:18;;;;;;;71.00;39.70;;;;;;;;;;5052751;28;20036;-74
2021/01/02 06:00:47;;;;;;;61.55;34.22;;;;;;;;;;5051687;28;20025;-74
2021/01/02 06:03:25;;;;;;;64.68;38.78;;;;;;;;;;5051385;28;20074;-74
2021/01/02 06:05:58;;;;;;;65.30;37.13;;;;;;;;;;5051516;28;20357;-74
2021/01/02 06:08:28;;;;;;;74.22;41.60;;;;;;;;;;5052826;28;20028;-74
2021/01/02 06:10:55;;;;;;;70.13;40.28;;;;;;;;;;5051516;28;20024;-74
2021/01/02 06:13:22;;;;;;;71.47;39.67;;;;;;;;;;5052827;28;20056;-74
2021/01/02 06:15:48;;;;;;;70.70;40.47;;;;;;;;;;5051530;28;20361;-74
2021/01/02 06:18:14;;;;;;;64.07;37.80;;;;;;;;;;5051054;28;20480;-74
2021/01/02 06:20:40;;;;;;;69.13;39.92;;;;;;;;;;5052630;28;20100;-74
2021/01/02 06:23:07;;;;;;;79.13;43.72;;;;;;;;;;5051037;28;20108;-74
2021/01/02 06:25:33;;;;;;;69.47;38.15;;;;;;;;;;5053116;28;20058;-74
2021/01/02 06:27:59;;;;;;;68.03;35.05;;;;;;;;;;5072225;28;20032;-74
2021/01/02 06:30:25;;;;;;;70.25;38.70;;;;;;;;;;5072086;28;20017;-75
2021/01/02 06:32:51;;;;;;;83.43;43.55;;;;;;;;;;5071206;28;20044;-74
2021/01/02 06:35:17;;;;;;;71.80;42.20;;;;;;;;;;5070662;28;20017;-74
2021/01/02 06:37:50;;;;;;;74.00;41.72;;;;;;;;;;5070602;28;20502;-74
2021/01/02 06:40:23;;;;;;;79.38;41.95;;;;;;;;;;5070377;28;20028;-74
2021/01/02 06:42:56;;;;;;;75.32;40.25;;;;;;;;;;5072376;28;20124;-74
2021/01/02 06:45:41;;;;;;;74.00;40.95;;;;;;;;;;5072172;28;20091;-74
2021/01/02 06:48:13;;;;;;;79.88;41.35;;;;;;;;;;5070904;28;20021;-74
2021/01/02 06:50:59;;;;;;;77.88;42.25;;;;;;;;;;5071050;28;20028;-74
2021/01/02 06:53:26;;;;;;;74.10;41.63;;;;;;;;;;5072404;28;20013;-74
2021/01/02 06:56:02;;;;;;;79.55;41.53;;;;;;;;;;5072527;28;20035;-74
2021/01/02 06:58:37;;;;;;;79.15;42.50;;;;;;;;;;5072097;28;20020;-74
2021/01/02 07:01:07;;;;;;;72.47;41.55;;;;;;;;;;5071998;28;20032;-74
2021/01/02 07:03:39;;;;;;;83.88;44.20;;;;;;;;;;5070858;28;20519;-74
2021/01/02 07:08:56;;;;;;;82.78;45.35;;;;;;;;;;5072066;28;20035;-74
2021/01/02 07:11:40;;;;;;;84.80;43.65;;;;;;;;;;5072176;28;20024;-74
2021/01/02 07:14:09;;;;;;;75.95;41.30;;;;;;;;;;5064323;28;20481;-74
2021/01/02 07:16:36;;;;;;;78.65;43.20;;;;;;;;;;5052125;28;20440;-74
2021/01/02 07:19:03;;;;;;;84.90;44.28;;;;;;;;;;5051949;28;20021;-74
2021/01/02 07:21:39;;;;;;;81.90;44.53;;;;;;;;;;5050785;28;20051;-74
2021/01/02 07:24:24;;;;;;;82.70;44.53;;;;;;;;;;5051846;28;20039;-74
2021/01/02 07:27:10;;;;;;;82.32;44.40;;;;;;;;;;5051658;28;20027;-75
2021/01/02 07:29:37;;;;;;;85.43;44.33;;;;;;;;;;5051854;28;20020;-75
2021/01/02 07:32:05;;;;;;;86.90;44.33;;;;;;;;;;5051872;28;20044;-75
2021/01/02 07:34:31;;;;;;;86.18;43.45;;;;;;;;;;5050637;28;20029;-75
2021/01/02 07:37:01;;;;;;;87.30;44.85;;;;;;;;;;5051778;28;20009;-74
2021/01/02 07:39:27;;;;;;;92.95;46.88;;;;;;;;;;5050325;28;20393;-74
2021/01/02 07:41:54;;;;;;;89.22;45.60;;;;;;;;;;5051797;28;20021;-75
2021/01/02 07:44:21;;;;;;;71.65;38.05;;;;;;;;;;5051887;28;20532;-74
2021/01/02 07:46:47;;;;;;;82.13;42.72;;;;;;;;;;5054251;28;20138;-75
2021/01/02 07:49:20;;;;;;;87.82;45.33;;;;;;;;;;5054082;28;20020;-75
2021/01/02 07:51:49;;;;;;;84.10;45.05;;;;;;;;;;5055182;28;20017;-74
2021/01/02 07:54:28;;;;;;;88.45;45.80;;;;;;;;;;5055133;28;20103;-74
2021/01/02 07:56:54;;;;;;;82.65;42.97;;;;;;;;;;5055299;28;20013;-75
2021/01/02 07:59:28;;;;;;;84.40;43.63;;;;;;;;;;5054956;28;20036;-75
2021/01/02 08:01:55;;;;;;;85.57;45.42;;;;;;;;;;5055133;28;20408;-74
2021/01/02 08:04:22;;;;;;;88.60;44.85;;;;;;;;;;5053268;28;20017;-74
2021/01/02 08:06:49;;;;;;;84.00;43.70;;;;;;;;;;5055121;28;20021;-75
2021/01/02 08:09:15;;;;;;;88.15;44.35;;;;;;;;;;5053529;28;20357;-74
2021/01/02 08:11:51;;;;;;;83.18;45.00;;;;;;;;;;5055019;28;20028;-74
2021/01/02 08:14:17;;;;;;;90.28;45.90;;;;;;;;;;5053310;28;20009;-74
2021/01/02 08:17:02;;;;;;;91.78;45.17;;;;;;;;;;5054760;28;20036;-75
2021/01/02 08:19:32;;;;;;;90.65;44.22;;;;;;;;;;5054719;28;20039;-74
2021/01/02 08:21:59;;;;;;;105.03;49.85;;;;;;;;;;5054839;28;20043;-74
2021/01/02 08:24:25;;;;;;;92.38;45.75;;;;;;;;;;5053217;28;20158;-75
2021/01/02 08:26:51;;;;;;;94.60;48.47;;;;;;;;;;5054733;28;20032;-75
2021/01/02 08:29:17;;;;;;;98.90;46.80;;;;;;;;;;5053151;28;20519;-74
2021/01/02 08:31:54;;;;;;;96.00;48.70;;;;;;;;;;5055865;28;20053;-74
2021/01/02 08:34:23;;;;;;;94.32;45.47;;;;;;;;;;5074675;28;20031;-74
2021/01/02 08:36:50;;;;;;;92.97;44.47;;;;;;;;;;5058477;28;20013;-73
2021/01/02 08:39:19;;;;;;;93.38;44.92;;;;;;;;;;5054186;28;20032;-73
2021/01/02 08:41:52;;;;;;;105.72;47.20;;;;;;;;;;5053131;28;20400;-73
2021/01/02 08:44:21;;;;;;;99.60;46.10;;;;;;;;;;5058247;28;20013;-73
2021/01/02 08:46:47;;;;;;;97.78;46.42;;;;;;;;;;5057001;28;20028;-74
2021/01/02 08:49:25;;;;;;;96.22;47.30;;;;;;;;;;5052753;28;20025;-74
2021/01/02 08:51:51;;;;;;;93.75;45.47;;;;;;;;;;5054605;28;20037;-74
2021/01/02 08:54:17;;;;;;;91.70;43.40;;;;;;;;;;5052612;28;20083;-73
2021/01/02 08:56:43;;;;;;;94.18;42.17;;;;;;;;;;5051812;28;20025;-74
2021/01/02 08:59:12;;;;;;;89.88;41.88;;;;;;;;;;5052473;28;20028;-74
2021/01/02 09:01:38;;;;;;;96.13;46.05;;;;;;;;;;5054049;28;20072;-74
2021/01/02 09:04:11;;;;;;;93.70;41.97;;;;;;;;;;5053972;28;20027;-73
2021/01/02 09:06:37;;;;;;;90.93;45.17;;;;;;;;;;5054241;28;20035;-73
2021/01/02 09:09:06;;;;;;;94.15;44.92;;;;;;;;;;5052587;28;20091;-73
2021/01/02 09:11:51;;;;;;;88.78;40.85;;;;;;;;;;5052376;28;20120;-73
2021/01/02 09:14:17;;;;;;;92.05;43.75;;;;;;;;;;5052160;28;20017;-74
2021/01/02 09:16:59;;;;;;;103.15;47.92;;;;;;;;;;5052536;28;20017;-74
2021/01/02 09:19:25;;;;;;;90.97;45.10;;;;;;;;;;5053539;28;20028;-74
2021/01/02 09:21:51;;;;;;;90.18;42.65;;;;;;;;;;5052429;28;20252;-74
2021/01/02 09:24:21;;;;;;;90.88;43.15;;;;;;;;;;5052203;28;20017;-74
2021/01/02 09:26:48;;;;;;;88.37;41.87;;;;;;;;;;5052338;28;20021;-74
2021/01/02 09:29:15;;;;;;;87.38;43.05;;;;;;;;;;5051410;28;20263;-74
2021/01/02 09:31:41;;;;;;;83.97;42.47;;;;;;;;;;5051952;28;20473;-74
2021/01/02 09:34:07;;;;;;;101.28;46.25;;;;;;;;;;5053813;28;20024;-74
2021/01/02 09:36:33;;;;;;;97.88;46.90;;;;;;;;;;5052788;28;20025;-74
2021/01/02 09:38:59;;;;;;;92.97;44.13;;;;;;;;;;5051892;28;20062;-74
2021/01/02 09:41:26;;;;;;;91.85;44.78;;;;;;;;;;5069456;28;20020;-74
2021/01/02 09:43:54;;;;;;;96.05;45.65;;;;;;;;;;5072489;28;20035;-73
2021/01/02 09:46:20;;;;;;;112.55;51.10;;;;;;;;;;5071299;28;20156;-73
2021/01/02 09:48:47;;;;;;;104.63;49.08;;;;;;;;;;5072797;28;20475;-73
2021/01/02 09:51:14;;;;;;;100.28;44.65;;;;;;;;;;5072359;28;20027;-73
2021/01/02 09:53:40;;;;;;;108.55;46.47;;;;;;;;;;5071223;28;20016;-73
2021/01/02 09:56:06;;;;;;;93.85;46.33;;;;;;;;;;5072675;28;20020;-73
2021/01/02 09:58:32;;;;;;;90.65;42.53;;;;;;;;;;5064071;28;20443;-74
2021/01/02 10:00:58;;;;;;;109.70;46.72;;;;;;;;;;5061207;28;20017;-74
2021/01/02 10:03:24;;;;;;;96.45;44.13;;;;;;;;;;5060843;28;20016;-74
2021/01/02 10:05:50;;;;;;;88.43;39.67;;;;;;;;;;5069280;28;20032;-71
2021/01/02 10:08:17;;;;;;;91.72;41.72;;;;;;;;;;5071469;28;20377;-73
2021/01/02 10:10:43;;;;;;;94.40;42.90;;;;;;;;;;5070758;28;20028;-74
2021/01/02 10:13:09;;;;;;;84.05;38.55;;;;;;;;;;5072135;28;20085;-73
2021/01/02 10:15:35;;;;;;;89.40;42.33;;;;;;;;;;5053301;28;20017;-73
2021/01/02 10:18:01;;;;;;;87.22;39.80;;;;;;;;;;5050701;28;20031;-73
2021/01/02 10:20:27;;;;;;;91.97;41.97;;;;;;;;;;5051778;28;20040;-73
2021/01/02 10:22:53;;;;;;;93.47;43.10;;;;;;;;;;5051936;28;20017;-73
2021/01/02 10:25:19;;;;;;;90.32;43.10;;;;;;;;;;5050385;28;20419;-73
2021/01/02 10:27:46;;;;;;;88.53;40.83;;;;;;;;;;5050551;28;20021;-73
2021/01/02 10:30:13;;;;;;;91.60;43.55;;;;;;;;;;5050304;28;20029;-73
2021/01/02 10:32:39;;;;;;;82.53;40.53;;;;;;;;;;5051384;28;20521;-73
2021/01/02 10:35:05;;;;;;;86.90;40.28;;;;;;;;;;5051758;28;20048;-73
2021/01/02 10:37:31;;;;;;;90.57;41.17;;;;;;;;;;5051634;28;20032;-73
2021/01/02 10:39:57;;;;;;;103.50;44.42;;;;;;;;;;5050353;28;20062;-73
2021/01/02 10:42:25;;;;;;;97.68;43.60;;;;;;;;;;5051416;28;20020;-73
2021/01/02 10:44:51;;;;;;;94.70;43.72;;;;;;;;;;5050368;28;20025;-73
2021/01/02 10:47:18;;;;;;;97.60;43.60;;;;;;;;;;5050185;28;20032;-73
2021/01/02 10:49:45;;;;;;;91.63;42.40;;;;;;;;;;5051720;28;20028;-73
2021/01/02 10:52:11;;;;;;;86.47;41.85;;;;;;;;;;5051380;28;20100;-73
2021/01/02 10:54:37;;;;;;;82.30;39.75;;;;;;;;;;5051342;28;20041;-73
2021/01/02 10:57:03;;;;;;;84.00;39.45;;;;;;;;;;5051499;28;20086;-73
2021/01/02 10:59:29;;;;;;;97.05;42.95;;;;;;;;;;5051175;28;20063;-73
2021/01/02 11:01:56;;;;;;;93.45;43.42;;;;;;;;;;5050263;28;20017;-73
2021/01/02 11:04:23;;;;;;;93.82;43.67;;;;;;;;;;5050013;28;20703;-73
2021/01/02 11:06:50;;;;;;;101.03;44.80;;;;;;;;;;5050237;28;20021;-73
2021/01/02 11:09:17;;;;;;;100.45;45.83;;;;;;;;;;5051076;28;20104;-74
2021/01/02 11:11:43;;;;;;;73.85;33.88;;;;;;;;;;5050021;28;20519;-74
2021/01/02 11:14:10;;;;;;;79.82;36.90;;;;;;;;;;5051263;28;20036;-73
2021/01/02 11:16:43;;;;;;;84.63;42.22;;;;;;;;;;5049970;28;20017;-73
2021/01/02 11:19:23;;;;;;;82.53;42.55;;;;;;;;;;5053147;28;20032;-75
2021/01/02 11:21:50;;;;;;;90.35;40.28;;;;;;;;;;5053959;28;20432;-73
2021/01/02 11:24:17;;;;;;;74.93;33.60;;;;;;;;;;5054947;28;20051;-73
2021/01/02 11:26:44;;;;;;;72.88;35.60;;;;;;;;;;5055193;28;20027;-73
2021/01/02 11:29:11;;;;;;;79.78;38.20;;;;;;;;;;5054937;28;20116;-73
2021/01/02 11:31:37;;;;;;;73.85;38.17;;;;;;;;;;5055002;28;20482;-73
2021/01/02 11:34:04;;;;;;;76.03;37.72;;;;;;;;;;5055422;28;20560;-73
2021/01/02 11:36:31;;;;;;;69.32;34.97;;;;;;;;;;5053436;28;20029;-73
2021/01/02 11:38:57;;;;;;;75.00;37.22;;;;;;;;;;5063744;28;20462;-73
2021/01/02 11:41:30;;;;;;;82.30;37.45;;;;;;;;;;5060880;28;20020;-74
2021/01/02 11:43:56;;;;;;;73.45;35.90;;;;;;;;;;5063760;28;20017;-74
2021/01/02 11:46:30;;;;;;;74.50;36.95;;;;;;;;;;5062924;28;20056;-74
2021/01/02 11:48:56;;;;;;;79.57;38.88;;;;;;;;;;5062294;28;20396;-72
2021/01/02 11:51:22;;;;;;;70.55;35.00;;;;;;;;;;5063745;28;20066;-73
2021/01/02 11:53:48;;;;;;;72.30;33.35;;;;;;;;;;5062136;28;20020;-73
2021/01/02 11:56:15;;;;;;;65.35;31.88;;;;;;;;;;5063407;28;20021;-74
2021/01/02 11:58:41;;;;;;;69.75;35.35;;;;;;;;;;5063574;28;20020;-74
2021/01/02 12:01:07;;;;;;;77.07;36.60;;;;;;;;;;5062227;28;20054;-73
2021/01/02 12:03:33;;;;;;;80.78;36.03;;;;;;;;;;5063166;28;20021;-74
2021/01/02 12:05:59;;;;;;;75.82;37.78;;;;;;;;;;5063453;28;20055;-74
2021/01/02 12:08:25;;;;;;;76.30;38.38;;;;;;;;;;5061334;28;20518;-74
2021/01/02 12:10:51;;;;;;;82.30;38.28;;;;;;;;;;5068838;28;20024;-75
2021/01/02 12:13:17;;;;;;;72.07;34.10;;;;;;;;;;5074020;28;20078;-74
2021/01/02 12:15:43;;;;;;;77.65;35.78;;;;;;;;;;5052946;28;20021;-75
2021/01/02 12:18:09;;;;;;;78.25;36.90;;;;;;;;;;5054150;28;20032;-73
2021/01/02 12:20:35;;;;;;;78.57;36.72;;;;;;;;;;5054069;28;20542;-75
2021/01/02 12:23:01;;;;;;;75.85;38.40;;;;;;;;;;5052763;28;20106;-74
2021/01/02 12:25:27;;;;;;;79.38;40.22;;;;;;;;;;5066146;28;20025;-73
2021/01/02 12:27:55;;;;;;;70.20;33.13;;;;;;;;;;5073558;28;20020;-73
2021/01/02 12:30:22;;;;;;;66.97;33.63;;;;;;;;;;5072102;28;20021;-73
2021/01/02 12:32:48;;;;;;;74.07;34.80;;;;;;;;;;5072196;28;20047;-74
2021/01/02 12:35:14;;;;;;;77.65;38.30;;;;;;;;;;5072678;28;20095;-73
2021/01/02 12:37:40;;;;;;;69.22;33.78;;;;;;;;;;5070125;28;20032;-74
2021/01/02 12:40:06;;;;;;;69.68;32.15;;;;;;;;;;5070937;28;20441;-73
2021/01/02 12:42:37;;;;;;;73.15;33.63;;;;;;;;;;5074328;28;20457;-73
2021/01/02 12:45:04;;;;;;;71.90;35.38;;;;;;;;;;5074483;28;20480;-73
2021/01/02 12:47:31;;;;;;;54.45;28.20;;;;;;;;;;5073566;28;20350;-73
2021/01/02 12:49:57;;;;;;;67.18;34.42;;;;;;;;;;5072677;28;20326;-73
2021/01/02 12:52:23;;;;;;;69.40;34.63;;;;;;;;;;5073752;28;20009;-73
2021/01/02 12:54:49;;;;;;;69.60;34.90;;;;;;;;;;5066918;28;20020;-73
2021/01/02 12:57:15;;;;;;;69.75;31.38;;;;;;;;;;5071837;28;20021;-73
2021/01/02 12:59:41;;;;;;;74.75;36.00;;;;;;;;;;5072095;28;20490;-73
2021/01/02 13:02:08;;;;;;;67.78;34.00;;;;;;;;;;5072275;28;20361;-74
2021/01/02 13:04:35;;;;;;;73.63;34.33;;;;;;;;;;5073333;28;20016;-74
2021/01/02 13:07:02;;;;;;;75.70;36.45;;;;;;;;;;5072121;28;20111;-74
2021/01/02 13:09:28;;;;;;;70.68;34.28;;;;;;;;;;5072805;28;20019;-74
2021/01/02 13:11:56;;;;;;;76.68;35.55;;;;;;;;;;5072510;28;20017;-74
2021/01/02 13:14:22;;;;;;;82.15;37.38;;;;;;;;;;5065073;28;20048;-74
2021/01/02 13:16:53;;;;;;;68.10;32.20;;;;;;;;;;5053511;28;20024;-74
2021/01/02 13:19:19;;;;;;;68.55;33.35;;;;;;;;;;5053266;28;20128;-74
2021/01/02 13:21:55;;;;;;;66.65;32.83;;;;;;;;;;5052241;28;20074;-74
2021/01/02 13:24:22;;;;;;;75.75;36.33;;;;;;;;;;5052039;28;20048;-74
2021/01/02 13:26:52;;;;;;;76.10;36.72;;;;;;;;;;5053415;28;20032;-74
2021/01/02 13:29:20;;;;;;;82.20;37.65;;;;;;;;;;5053206;28;20471;-74
2021/01/02 13:31:47;;;;;;;62.13;29.83;;;;;;;;;;5051678;28;20037;-72
2021/01/02 13:34:14;;;;;;;71.30;31.20;;;;;;;;;;5051777;28;20017;-74
2021/01/02 13:36:40;;;;;;;65.22;31.05;;;;;;;;;;5053469;28;20097;-74
2021/01/02 13:39:07;;;;;;;74.25;34.85;;;;;;;;;;5053125;28;20017;-74
2021/01/02 13:41:33;;;;;;;56.40;29.40;;;;;;;;;;5052499;28;20028;-73
2021/01/02 13:43:59;;;;;;;62.10;30.27;;;;;;;;;;5053168;28;20013;-73
2021/01/02 13:46:25;;;;;;;56.67;26.15;;;;;;;;;;5051416;28;20357;-73
2021/01/02 13:48:51;;;;;;;58.47;28.23;;;;;;;;;;5051765;28;20021;-74
2021/01/02 13:51:17;;;;;;;60.92;29.92;;;;;;;;;;5052825;28;20025;-74
2021/01/02 13:53:46;;;;;;;66.00;30.88;;;;;;;;;;5052679;28;20021;-74
2021/01/02 13:56:13;;;;;;;63.72;30.38;;;;;;;;;;5051469;28;20021;-74
2021/01/02 13:58:39;;;;;;;71.97;32.97;;;;;;;;;;5052614;28;20028;-74
2021/01/02 14:01:06;;;;;;;77.05;35.30;;;;;;;;;;5052878;28;20070;-74
2021/01/02 14:03:32;;;;;;;70.43;33.97;;;;;;;;;;5052477;28;20028;-74
2021/01/02 14:05:58;;;;;;;79.78;36.85;;;;;;;;;;5051399;28;20369;-74
2021/01/02 14:08:24;;;;;;;73.03;32.35;;;;;;;;;;5051319;28;20021;-74
2021/01/02 14:10:50;;;;;;;78.78;34.10;;;;;;;;;;5051472;28;20032;-74
2021/01/02 14:13:16;;;;;;;67.25;30.27;;;;;;;;;;5052148;28;20017;-74
2021/01/02 14:15:42;;;;;;;62.95;28.73;;;;;;;;;;5051050;28;20016;-74
2021/01/02 14:18:08;;;;;;;59.20;27.63;;;;;;;;;;5052723;28;20504;-74
2021/01/02 14:20:34;;;;;;;62.67;27.92;;;;;;;;;;5050886;28;20025;-74
2021/01/02 14:23:00;;;;;;;62.25;29.40;;;;;;;;;;5053063;28;20016;-74
2021/01/02 14:25:26;;;;;;;74.00;32.95;;;;;;;;;;5052531;28;20120;-74
2021/01/02 14:27:53;;;;;;;64.07;29.95;;;;;;;;;;5052437;28;20185;-74